sensor_id;sensor_type;location;lat;lon;timestamp;P1;durP1;ratioP1;P2;durP2;ratioP2
23222;SDS011;11780;13.904;100.620;2022-12-07T00:00:01;23.83;;;11.77;;
23222;SDS011;11780;13.904;100.620;2022-12-07T00:02:48;23.45;;;11.88;;
23222;SDS011;11780;13.904;100.620;2022-12-07T00:05:18;23.48;;;11.90;;
23222;SDS011;11780;13.904;100.620;2022-12-07T00:07:48;28.45;;;11.40;;
23222;SDS011;11780;13.904;100.620;2022-12-07T00:10:19;24.92;;;11.57;;
23222;SDS011;11780;13.904;100.620;2022-12-07T00:12:49;28.58;;;12.55;;
23222;SDS011;11780;13.904;100.620;2022-12-07T00:15:19;29.23;;;12.68;;
23222;SDS011;11780;13.904;100.620;2022-12-07T00:17:49;26.25;;;12.27;;
23222;SDS011;11780;13.904;100.620;2022-12-07T00:20:19;23.60;;;11.50;;
23222;SDS011;11780;13.904;100.620;2022-12-07T00:22:49;24.30;;;11.98;;
23222;SDS011;11780;13.904;100.620;2022-12-07T00:25:20;29.80;;;12.30;;
23222;SDS011;11780;13.904;100.620;2022-12-07T00:27:51;34.20;;;15.55;;
23222;SDS011;11780;13.904;100.620;2022-12-07T00:30:24;22.52;;;11.20;;
23222;SDS011;11780;13.904;100.620;2022-12-07T00:32:54;25.33;;;15.88;;
23222;SDS011;11780;13.904;100.620;2022-12-07T00:35:24;123.30;;;113.50;;
23222;SDS011;11780;13.904;100.620;2022-12-07T00:37:54;32.13;;;13.30;;
23222;SDS011;11780;13.904;100.620;2022-12-07T00:40:25;270.93;;;249.00;;
23222;SDS011;11780;13.904;100.620;2022-12-07T00:42:55;28.27;;;12.98;;
23222;SDS011;11780;13.904;100.620;2022-12-07T00:45:25;30.95;;;12.75;;
23222;SDS011;11780;13.904;100.620;2022-12-07T00:47:55;25.45;;;12.48;;
23222;SDS011;11780;13.904;100.620;2022-12-07T00:50:25;32.08;;;12.90;;
23222;SDS011;11780;13.904;100.620;2022-12-07T00:52:55;30.55;;;12.57;;
23222;SDS011;11780;13.904;100.620;2022-12-07T00:55:25;26.10;;;12.40;;
23222;SDS011;11780;13.904;100.620;2022-12-07T00:57:55;28.05;;;12.40;;
23222;SDS011;11780;13.904;100.620;2022-12-07T01:00:25;29.52;;;12.52;;
23222;SDS011;11780;13.904;100.620;2022-12-07T01:02:55;27.30;;;11.98;;
23222;SDS011;11780;13.904;100.620;2022-12-07T01:05:25;23.17;;;11.57;;
23222;SDS011;11780;13.904;100.620;2022-12-07T01:07:56;24.33;;;12.43;;
23222;SDS011;11780;13.904;100.620;2022-12-07T01:10:44;21.48;;;12.25;;
23222;SDS011;11780;13.904;100.620;2022-12-07T01:13:33;24.95;;;12.88;;
23222;SDS011;11780;13.904;100.620;2022-12-07T01:16:05;31.73;;;13.23;;
23222;SDS011;11780;13.904;100.620;2022-12-07T01:18:36;31.65;;;14.75;;
23222;SDS011;11780;13.904;100.620;2022-12-07T01:21:11;32.30;;;14.70;;
23222;SDS011;11780;13.904;100.620;2022-12-07T01:23:44;31.70;;;13.63;;
23222;SDS011;11780;13.904;100.620;2022-12-07T01:26:16;26.15;;;12.82;;
23222;SDS011;11780;13.904;100.620;2022-12-07T01:28:49;27.42;;;12.18;;
23222;SDS011;11780;13.904;100.620;2022-12-07T01:31:37;28.02;;;12.10;;
23222;SDS011;11780;13.904;100.620;2022-12-07T01:34:08;24.42;;;11.15;;
23222;SDS011;11780;13.904;100.620;2022-12-07T01:36:38;26.30;;;10.83;;
23222;SDS011;11780;13.904;100.620;2022-12-07T01:39:08;24.17;;;11.23;;
23222;SDS011;11780;13.904;100.620;2022-12-07T01:41:39;23.63;;;11.20;;
23222;SDS011;11780;13.904;100.620;2022-12-07T01:44:30;27.23;;;12.30;;
23222;SDS011;11780;13.904;100.620;2022-12-07T01:47:03;21.35;;;10.32;;
23222;SDS011;11780;13.904;100.620;2022-12-07T01:49:51;21.58;;;10.77;;
23222;SDS011;11780;13.904;100.620;2022-12-07T01:52:23;23.38;;;10.05;;
23222;SDS011;11780;13.904;100.620;2022-12-07T01:55:19;19.23;;;9.73;;
23222;SDS011;11780;13.904;100.620;2022-12-07T01:57:50;21.55;;;9.98;;
23222;SDS011;11780;13.904;100.620;2022-12-07T02:00:23;17.23;;;8.98;;
23222;SDS011;11780;13.904;100.620;2022-12-07T02:02:55;19.33;;;9.77;;
23222;SDS011;11780;13.904;100.620;2022-12-07T02:05:37;22.48;;;10.55;;
23222;SDS011;11780;13.904;100.620;2022-12-07T02:08:09;21.17;;;9.65;;
23222;SDS011;11780;13.904;100.620;2022-12-07T02:10:41;29.33;;;12.18;;
23222;SDS011;11780;13.904;100.620;2022-12-07T02:13:13;19.92;;;9.38;;
23222;SDS011;11780;13.904;100.620;2022-12-07T02:16:14;20.48;;;10.05;;
23222;SDS011;11780;13.904;100.620;2022-12-07T02:22:18;19.63;;;9.70;;
23222;SDS011;11780;13.904;100.620;2022-12-07T02:25:14;22.38;;;9.48;;
23222;SDS011;11780;13.904;100.620;2022-12-07T02:28:06;20.77;;;10.23;;
23222;SDS011;11780;13.904;100.620;2022-12-07T02:30:40;25.73;;;10.80;;
23222;SDS011;11780;13.904;100.620;2022-12-07T02:33:33;23.10;;;11.00;;
23222;SDS011;11780;13.904;100.620;2022-12-07T02:39:17;24.23;;;10.82;;
23222;SDS011;11780;13.904;100.620;2022-12-07T02:42:07;21.48;;;9.80;;
23222;SDS011;11780;13.904;100.620;2022-12-07T02:44:43;25.77;;;10.82;;
23222;SDS011;11780;13.904;100.620;2022-12-07T02:47:16;20.23;;;9.00;;
23222;SDS011;11780;13.904;100.620;2022-12-07T02:49:49;19.08;;;9.02;;
23222;SDS011;11780;13.904;100.620;2022-12-07T02:52:19;25.07;;;10.30;;
23222;SDS011;11780;13.904;100.620;2022-12-07T02:54:49;19.30;;;9.10;;
23222;SDS011;11780;13.904;100.620;2022-12-07T03:00:26;23.25;;;10.18;;
23222;SDS011;11780;13.904;100.620;2022-12-07T03:03:07;22.48;;;9.98;;
23222;SDS011;11780;13.904;100.620;2022-12-07T03:11:34;22.15;;;9.68;;
23222;SDS011;11780;13.904;100.620;2022-12-07T03:14:34;17.60;;;8.85;;
23222;SDS011;11780;13.904;100.620;2022-12-07T03:17:15;16.17;;;8.43;;
23222;SDS011;11780;13.904;100.620;2022-12-07T03:19:49;16.05;;;8.68;;
23222;SDS011;11780;13.904;100.620;2022-12-07T03:22:22;19.77;;;8.20;;
23222;SDS011;11780;13.904;100.620;2022-12-07T03:24:56;19.00;;;9.27;;
23222;SDS011;11780;13.904;100.620;2022-12-07T03:27:37;24.27;;;10.15;;
23222;SDS011;11780;13.904;100.620;2022-12-07T03:30:15;21.77;;;9.25;;
23222;SDS011;11780;13.904;100.620;2022-12-07T03:32:55;22.42;;;9.82;;
23222;SDS011;11780;13.904;100.620;2022-12-07T03:35:39;19.77;;;9.00;;
23222;SDS011;11780;13.904;100.620;2022-12-07T03:41:00;19.88;;;9.43;;
23222;SDS011;11780;13.904;100.620;2022-12-07T03:43:50;21.92;;;9.10;;
23222;SDS011;11780;13.904;100.620;2022-12-07T03:47:24;18.98;;;8.57;;
23222;SDS011;11780;13.904;100.620;2022-12-07T03:49:52;15.95;;;8.48;;
23222;SDS011;11780;13.904;100.620;2022-12-07T03:52:42;19.75;;;9.57;;
23222;SDS011;11780;13.904;100.620;2022-12-07T03:58:17;21.52;;;9.18;;
23222;SDS011;11780;13.904;100.620;2022-12-07T04:00:50;19.05;;;8.55;;
23222;SDS011;11780;13.904;100.620;2022-12-07T04:03:21;15.32;;;8.40;;
23222;SDS011;11780;13.904;100.620;2022-12-07T04:05:51;15.82;;;8.45;;
23222;SDS011;11780;13.904;100.620;2022-12-07T04:08:22;19.92;;;9.43;;
23222;SDS011;11780;13.904;100.620;2022-12-07T04:10:52;19.30;;;9.32;;
23222;SDS011;11780;13.904;100.620;2022-12-07T04:13:22;21.23;;;10.18;;
23222;SDS011;11780;13.904;100.620;2022-12-07T04:15:53;18.55;;;8.85;;
23222;SDS011;11780;13.904;100.620;2022-12-07T04:18:23;17.63;;;8.88;;
23222;SDS011;11780;13.904;100.620;2022-12-07T04:20:53;21.88;;;9.75;;
23222;SDS011;11780;13.904;100.620;2022-12-07T04:23:38;22.42;;;9.65;;
23222;SDS011;11780;13.904;100.620;2022-12-07T04:26:08;19.67;;;9.93;;
23222;SDS011;11780;13.904;100.620;2022-12-07T04:28:38;15.15;;;8.63;;
23222;SDS011;11780;13.904;100.620;2022-12-07T04:31:08;27.10;;;10.50;;
23222;SDS011;11780;13.904;100.620;2022-12-07T04:33:38;19.88;;;9.10;;
23222;SDS011;11780;13.904;100.620;2022-12-07T04:36:08;22.30;;;9.73;;
23222;SDS011;11780;13.904;100.620;2022-12-07T04:38:39;19.17;;;9.45;;
23222;SDS011;11780;13.904;100.620;2022-12-07T04:41:09;16.35;;;8.95;;
23222;SDS011;11780;13.904;100.620;2022-12-07T04:43:39;22.42;;;10.00;;
23222;SDS011;11780;13.904;100.620;2022-12-07T04:46:09;21.38;;;9.32;;
23222;SDS011;11780;13.904;100.620;2022-12-07T04:48:39;25.92;;;9.65;;
23222;SDS011;11780;13.904;100.620;2022-12-07T04:51:09;20.20;;;8.57;;
23222;SDS011;11780;13.904;100.620;2022-12-07T04:53:39;24.17;;;9.55;;
23222;SDS011;11780;13.904;100.620;2022-12-07T04:56:09;23.67;;;10.27;;
23222;SDS011;11780;13.904;100.620;2022-12-07T04:58:55;24.38;;;10.32;;
23222;SDS011;11780;13.904;100.620;2022-12-07T05:01:25;23.27;;;9.57;;
23222;SDS011;11780;13.904;100.620;2022-12-07T05:03:55;19.05;;;9.15;;
23222;SDS011;11780;13.904;100.620;2022-12-07T05:06:25;19.05;;;8.02;;
23222;SDS011;11780;13.904;100.620;2022-12-07T05:09:14;18.60;;;9.02;;
23222;SDS011;11780;13.904;100.620;2022-12-07T05:11:44;22.50;;;9.20;;
23222;SDS011;11780;13.904;100.620;2022-12-07T05:14:16;19.20;;;9.23;;
23222;SDS011;11780;13.904;100.620;2022-12-07T05:16:49;20.95;;;8.93;;
23222;SDS011;11780;13.904;100.620;2022-12-07T05:19:20;18.00;;;8.32;;
23222;SDS011;11780;13.904;100.620;2022-12-07T05:21:50;19.55;;;8.35;;
23222;SDS011;11780;13.904;100.620;2022-12-07T05:24:20;21.55;;;9.35;;
23222;SDS011;11780;13.904;100.620;2022-12-07T05:26:50;18.10;;;8.35;;
23222;SDS011;11780;13.904;100.620;2022-12-07T05:29:20;23.73;;;9.20;;
23222;SDS011;11780;13.904;100.620;2022-12-07T05:31:51;22.40;;;10.07;;
23222;SDS011;11780;13.904;100.620;2022-12-07T05:34:21;14.15;;;7.75;;
23222;SDS011;11780;13.904;100.620;2022-12-07T05:36:51;18.02;;;8.63;;
23222;SDS011;11780;13.904;100.620;2022-12-07T05:39:55;23.25;;;9.85;;
23222;SDS011;11780;13.904;100.620;2022-12-07T05:42:40;15.23;;;8.07;;
23222;SDS011;11780;13.904;100.620;2022-12-07T05:45:11;26.23;;;9.63;;
23222;SDS011;11780;13.904;100.620;2022-12-07T05:47:41;31.08;;;10.15;;
23222;SDS011;11780;13.904;100.620;2022-12-07T05:50:11;20.17;;;8.77;;
23222;SDS011;11780;13.904;100.620;2022-12-07T05:52:43;16.83;;;7.93;;
23222;SDS011;11780;13.904;100.620;2022-12-07T05:55:13;23.80;;;9.10;;
23222;SDS011;11780;13.904;100.620;2022-12-07T05:57:43;18.00;;;7.78;;
23222;SDS011;11780;13.904;100.620;2022-12-07T06:00:48;27.27;;;10.27;;
23222;SDS011;11780;13.904;100.620;2022-12-07T06:03:18;25.13;;;8.82;;
23222;SDS011;11780;13.904;100.620;2022-12-07T06:05:49;20.58;;;8.32;;
23222;SDS011;11780;13.904;100.620;2022-12-07T06:08:19;24.45;;;9.02;;
23222;SDS011;11780;13.904;100.620;2022-12-07T06:10:49;20.02;;;9.02;;
23222;SDS011;11780;13.904;100.620;2022-12-07T06:13:39;20.80;;;8.57;;
23222;SDS011;11780;13.904;100.620;2022-12-07T06:16:13;20.77;;;8.25;;
23222;SDS011;11780;13.904;100.620;2022-12-07T06:18:43;22.98;;;8.88;;
23222;SDS011;11780;13.904;100.620;2022-12-07T06:21:13;16.88;;;8.02;;
23222;SDS011;11780;13.904;100.620;2022-12-07T06:23:43;20.95;;;8.63;;
23222;SDS011;11780;13.904;100.620;2022-12-07T06:26:13;16.08;;;8.00;;
23222;SDS011;11780;13.904;100.620;2022-12-07T06:28:44;20.23;;;8.70;;
23222;SDS011;11780;13.904;100.620;2022-12-07T06:31:14;21.88;;;9.50;;
23222;SDS011;11780;13.904;100.620;2022-12-07T06:33:44;19.03;;;8.37;;
23222;SDS011;11780;13.904;100.620;2022-12-07T06:36:14;22.38;;;8.63;;
23222;SDS011;11780;13.904;100.620;2022-12-07T06:38:51;19.90;;;8.35;;
23222;SDS011;11780;13.904;100.620;2022-12-07T06:41:22;27.38;;;10.32;;
23222;SDS011;11780;13.904;100.620;2022-12-07T06:43:52;26.52;;;10.10;;
23222;SDS011;11780;13.904;100.620;2022-12-07T06:46:22;17.05;;;8.80;;
23222;SDS011;11780;13.904;100.620;2022-12-07T06:48:52;20.73;;;8.90;;
23222;SDS011;11780;13.904;100.620;2022-12-07T06:51:22;20.52;;;9.25;;
23222;SDS011;11780;13.904;100.620;2022-12-07T06:53:53;23.17;;;8.70;;
23222;SDS011;11780;13.904;100.620;2022-12-07T06:56:42;25.92;;;10.38;;
23222;SDS011;11780;13.904;100.620;2022-12-07T06:59:12;17.27;;;8.60;;
23222;SDS011;11780;13.904;100.620;2022-12-07T07:01:42;22.35;;;9.27;;
23222;SDS011;11780;13.904;100.620;2022-12-07T07:04:13;13.10;;;7.97;;
23222;SDS011;11780;13.904;100.620;2022-12-07T07:06:43;23.17;;;9.80;;
23222;SDS011;11780;13.904;100.620;2022-12-07T07:09:13;19.23;;;9.32;;
23222;SDS011;11780;13.904;100.620;2022-12-07T07:11:43;19.58;;;9.15;;
23222;SDS011;11780;13.904;100.620;2022-12-07T07:14:13;17.00;;;8.27;;
23222;SDS011;11780;13.904;100.620;2022-12-07T07:17:06;20.50;;;8.77;;
23222;SDS011;11780;13.904;100.620;2022-12-07T07:19:36;19.27;;;9.02;;
23222;SDS011;11780;13.904;100.620;2022-12-07T07:22:06;20.65;;;8.98;;
23222;SDS011;11780;13.904;100.620;2022-12-07T07:24:55;22.10;;;9.05;;
23222;SDS011;11780;13.904;100.620;2022-12-07T07:27:25;19.70;;;8.73;;
23222;SDS011;11780;13.904;100.620;2022-12-07T07:29:55;23.40;;;9.70;;
23222;SDS011;11780;13.904;100.620;2022-12-07T07:32:41;20.40;;;8.57;;
23222;SDS011;11780;13.904;100.620;2022-12-07T07:35:11;23.07;;;9.57;;
23222;SDS011;11780;13.904;100.620;2022-12-07T07:37:43;15.05;;;7.93;;
23222;SDS011;11780;13.904;100.620;2022-12-07T07:40:13;19.45;;;8.88;;
23222;SDS011;11780;13.904;100.620;2022-12-07T07:42:43;24.20;;;9.88;;
23222;SDS011;11780;13.904;100.620;2022-12-07T07:45:14;23.92;;;10.63;;
23222;SDS011;11780;13.904;100.620;2022-12-07T07:47:44;21.05;;;9.60;;
23222;SDS011;11780;13.904;100.620;2022-12-07T07:50:14;26.10;;;11.18;;
23222;SDS011;11780;13.904;100.620;2022-12-07T07:52:45;470.97;;;431.00;;
23222;SDS011;11780;13.904;100.620;2022-12-07T07:55:15;477.25;;;435.63;;
23222;SDS011;11780;13.904;100.620;2022-12-07T07:57:45;482.30;;;443.98;;
23222;SDS011;11780;13.904;100.620;2022-12-07T08:00:20;476.20;;;435.60;;
23222;SDS011;11780;13.904;100.620;2022-12-07T08:02:51;445.05;;;408.55;;
23222;SDS011;11780;13.904;100.620;2022-12-07T08:05:21;456.40;;;426.33;;
23222;SDS011;11780;13.904;100.620;2022-12-07T08:07:51;484.83;;;447.80;;
23222;SDS011;11780;13.904;100.620;2022-12-07T08:10:21;462.25;;;423.13;;
23222;SDS011;11780;13.904;100.620;2022-12-07T08:12:51;454.70;;;422.63;;
23222;SDS011;11780;13.904;100.620;2022-12-07T08:15:45;467.95;;;431.73;;
23222;SDS011;11780;13.904;100.620;2022-12-07T08:18:17;474.10;;;437.63;;
23222;SDS011;11780;13.904;100.620;2022-12-07T08:20:48;471.42;;;430.52;;
23222;SDS011;11780;13.904;100.620;2022-12-07T08:23:18;458.60;;;416.88;;
23222;SDS011;11780;13.904;100.620;2022-12-07T08:26:16;470.27;;;429.05;;
23222;SDS011;11780;13.904;100.620;2022-12-07T08:28:46;471.52;;;430.73;;
23222;SDS011;11780;13.904;100.620;2022-12-07T08:31:17;487.23;;;445.63;;
23222;SDS011;11780;13.904;100.620;2022-12-07T08:33:48;478.27;;;437.17;;
23222;SDS011;11780;13.904;100.620;2022-12-07T08:36:18;490.42;;;448.23;;
23222;SDS011;11780;13.904;100.620;2022-12-07T08:38:49;445.27;;;405.77;;
23222;SDS011;11780;13.904;100.620;2022-12-07T08:41:39;478.23;;;437.23;;
23222;SDS011;11780;13.904;100.620;2022-12-07T08:44:09;474.88;;;433.48;;
23222;SDS011;11780;13.904;100.620;2022-12-07T08:46:44;468.73;;;428.90;;
23222;SDS011;11780;13.904;100.620;2022-12-07T08:49:26;480.42;;;438.63;;
23222;SDS011;11780;13.904;100.620;2022-12-07T08:52:02;475.05;;;434.58;;
23222;SDS011;11780;13.904;100.620;2022-12-07T08:54:35;486.17;;;444.02;;
23222;SDS011;11780;13.904;100.620;2022-12-07T08:57:09;481.92;;;441.10;;
23222;SDS011;11780;13.904;100.620;2022-12-07T08:59:58;467.48;;;426.85;;
23222;SDS011;11780;13.904;100.620;2022-12-07T09:02:30;479.33;;;438.63;;
23222;SDS011;11780;13.904;100.620;2022-12-07T09:05:01;477.58;;;436.10;;
23222;SDS011;11780;13.904;100.620;2022-12-07T09:07:32;479.95;;;438.73;;
23222;SDS011;11780;13.904;100.620;2022-12-07T09:10:04;453.65;;;413.23;;
23222;SDS011;11780;13.904;100.620;2022-12-07T09:12:35;448.80;;;409.35;;
23222;SDS011;11780;13.904;100.620;2022-12-07T09:15:05;453.23;;;412.85;;
23222;SDS011;11780;13.904;100.620;2022-12-07T09:17:37;458.42;;;418.67;;
23222;SDS011;11780;13.904;100.620;2022-12-07T09:20:07;480.45;;;439.02;;
23222;SDS011;11780;13.904;100.620;2022-12-07T09:22:38;476.40;;;435.85;;
23222;SDS011;11780;13.904;100.620;2022-12-07T09:25:08;467.42;;;426.08;;
23222;SDS011;11780;13.904;100.620;2022-12-07T09:27:39;485.05;;;444.05;;
23222;SDS011;11780;13.904;100.620;2022-12-07T09:30:09;501.00;;;457.50;;
23222;SDS011;11780;13.904;100.620;2022-12-07T09:32:39;492.70;;;450.58;;
23222;SDS011;11780;13.904;100.620;2022-12-07T09:35:09;487.25;;;446.02;;
23222;SDS011;11780;13.904;100.620;2022-12-07T09:37:39;491.52;;;449.42;;
23222;SDS011;11780;13.904;100.620;2022-12-07T09:40:10;467.40;;;426.38;;
23222;SDS011;11780;13.904;100.620;2022-12-07T09:42:43;482.98;;;441.80;;
23222;SDS011;11780;13.904;100.620;2022-12-07T09:45:19;484.42;;;442.65;;
23222;SDS011;11780;13.904;100.620;2022-12-07T09:47:51;465.38;;;424.83;;
23222;SDS011;11780;13.904;100.620;2022-12-07T09:50:23;478.63;;;438.10;;
23222;SDS011;11780;13.904;100.620;2022-12-07T09:52:56;493.50;;;452.17;;
23222;SDS011;11780;13.904;100.620;2022-12-07T09:56:02;484.42;;;443.10;;
23222;SDS011;11780;13.904;100.620;2022-12-07T09:58:33;479.90;;;438.42;;
23222;SDS011;11780;13.904;100.620;2022-12-07T10:01:20;474.75;;;434.40;;
23222;SDS011;11780;13.904;100.620;2022-12-07T10:04:14;465.73;;;425.20;;
23222;SDS011;11780;13.904;100.620;2022-12-07T10:07:09;500.55;;;457.40;;
23222;SDS011;11780;13.904;100.620;2022-12-07T10:09:39;489.80;;;449.05;;
23222;SDS011;11780;13.904;100.620;2022-12-07T10:12:10;484.00;;;442.83;;
23222;SDS011;11780;13.904;100.620;2022-12-07T10:14:55;500.95;;;458.90;;
23222;SDS011;11780;13.904;100.620;2022-12-07T10:17:52;478.47;;;437.27;;
23222;SDS011;11780;13.904;100.620;2022-12-07T10:25:35;466.27;;;426.58;;
23222;SDS011;11780;13.904;100.620;2022-12-07T10:28:33;447.92;;;407.58;;
23222;SDS011;11780;13.904;100.620;2022-12-07T10:31:18;452.42;;;411.80;;
23222;SDS011;11780;13.904;100.620;2022-12-07T10:34:22;482.23;;;440.67;;
23222;SDS011;11780;13.904;100.620;2022-12-07T10:37:16;480.90;;;439.23;;
23222;SDS011;11780;13.904;100.620;2022-12-07T10:39:53;465.20;;;424.33;;
23222;SDS011;11780;13.904;100.620;2022-12-07T10:42:26;476.38;;;434.70;;
23222;SDS011;11780;13.904;100.620;2022-12-07T10:45:16;464.75;;;424.20;;
23222;SDS011;11780;13.904;100.620;2022-12-07T10:53:39;464.63;;;423.40;;
23222;SDS011;11780;13.904;100.620;2022-12-07T11:04:25;743.47;;;688.88;;
23222;SDS011;11780;13.904;100.620;2022-12-07T11:10:29;725.65;;;670.97;;
23222;SDS011;11780;13.904;100.620;2022-12-07T11:13:20;461.65;;;420.92;;
23222;SDS011;11780;13.904;100.620;2022-12-07T11:16:00;466.42;;;425.90;;
23222;SDS011;11780;13.904;100.620;2022-12-07T11:18:43;483.25;;;442.02;;
23222;SDS011;11780;13.904;100.620;2022-12-07T11:21:58;471.27;;;430.90;;
23222;SDS011;11780;13.904;100.620;2022-12-07T11:24:35;479.88;;;439.15;;
23222;SDS011;11780;13.904;100.620;2022-12-07T11:38:42;760.30;;;702.88;;
23222;SDS011;11780;13.904;100.620;2022-12-07T11:41:35;765.28;;;710.10;;
23222;SDS011;11780;13.904;100.620;2022-12-07T11:47:06;669.58;;;618.13;;
23222;SDS011;11780;13.904;100.620;2022-12-07T11:52:29;798.38;;;739.85;;
23222;SDS011;11780;13.904;100.620;2022-12-07T11:55:32;711.45;;;658.83;;
23222;SDS011;11780;13.904;100.620;2022-12-07T12:01:24;746.08;;;692.20;;
23222;SDS011;11780;13.904;100.620;2022-12-07T12:03:58;734.20;;;679.72;;
23222;SDS011;11780;13.904;100.620;2022-12-07T12:06:54;716.35;;;662.45;;
23222;SDS011;11780;13.904;100.620;2022-12-07T12:09:32;727.55;;;674.05;;
23222;SDS011;11780;13.904;100.620;2022-12-07T12:13:02;740.72;;;687.38;;
23222;SDS011;11780;13.904;100.620;2022-12-07T12:16:53;756.30;;;702.03;;
23222;SDS011;11780;13.904;100.620;2022-12-07T12:19:35;761.13;;;707.25;;
23222;SDS011;11780;13.904;100.620;2022-12-07T12:22:26;738.00;;;684.53;;
23222;SDS011;11780;13.904;100.620;2022-12-07T12:25:29;768.47;;;715.75;;
23222;SDS011;11780;13.904;100.620;2022-12-07T12:28:27;775.22;;;722.17;;
23222;SDS011;11780;13.904;100.620;2022-12-07T12:33:56;782.65;;;730.42;;
23222;SDS011;11780;13.904;100.620;2022-12-07T12:39:28;762.15;;;710.40;;
23222;SDS011;11780;13.904;100.620;2022-12-07T12:41:59;764.38;;;711.22;;
23222;SDS011;11780;13.904;100.620;2022-12-07T12:53:25;764.70;;;714.70;;
23222;SDS011;11780;13.904;100.620;2022-12-07T12:58:44;725.08;;;671.17;;
23222;SDS011;11780;13.904;100.620;2022-12-07T13:06:53;781.65;;;724.70;;
23222;SDS011;11780;13.904;100.620;2022-12-07T13:09:25;740.97;;;686.63;;
23222;SDS011;11780;13.904;100.620;2022-12-07T13:12:00;719.08;;;665.30;;
23222;SDS011;11780;13.904;100.620;2022-12-07T13:14:53;712.80;;;659.90;;
23222;SDS011;11780;13.904;100.620;2022-12-07T13:20:05;767.30;;;711.50;;
23222;SDS011;11780;13.904;100.620;2022-12-07T13:22:44;752.15;;;698.13;;
23222;SDS011;11780;13.904;100.620;2022-12-07T13:25:23;769.40;;;714.47;;
23222;SDS011;11780;13.904;100.620;2022-12-07T13:30:50;756.65;;;702.05;;
23222;SDS011;11780;13.904;100.620;2022-12-07T13:33:22;762.38;;;707.40;;
23222;SDS011;11780;13.904;100.620;2022-12-07T13:35:56;738.73;;;685.70;;
23222;SDS011;11780;13.904;100.620;2022-12-07T14:05:41;23.85;;;12.02;;
23222;SDS011;11780;13.904;100.620;2022-12-07T14:16:00;14.65;;;9.75;;
23222;SDS011;11780;13.904;100.620;2022-12-07T14:18:41;18.00;;;11.52;;
23222;SDS011;11780;13.904;100.620;2022-12-07T14:24:01;19.73;;;12.40;;
23222;SDS011;11780;13.904;100.620;2022-12-07T14:26:40;24.60;;;13.82;;
23222;SDS011;11780;13.904;100.620;2022-12-07T14:29:47;12.70;;;9.80;;
23222;SDS011;11780;13.904;100.620;2022-12-07T14:32:20;14.02;;;10.25;;
23222;SDS011;11780;13.904;100.620;2022-12-07T14:35:32;14.25;;;9.75;;
23222;SDS011;11780;13.904;100.620;2022-12-07T14:37:54;13.52;;;9.27;;
23222;SDS011;11780;13.904;100.620;2022-12-07T14:40:25;12.68;;;9.10;;
23222;SDS011;11780;13.904;100.620;2022-12-07T14:42:59;14.88;;;9.10;;
23222;SDS011;11780;13.904;100.620;2022-12-07T14:45:31;13.40;;;8.93;;
23222;SDS011;11780;13.904;100.620;2022-12-07T14:48:02;10.70;;;8.27;;
23222;SDS011;11780;13.904;100.620;2022-12-07T14:50:52;11.33;;;9.17;;
23222;SDS011;11780;13.904;100.620;2022-12-07T14:53:44;16.00;;;9.70;;
23222;SDS011;11780;13.904;100.620;2022-12-07T14:56:23;11.77;;;8.30;;
23222;SDS011;11780;13.904;100.620;2022-12-07T14:58:54;15.30;;;7.75;;
23222;SDS011;11780;13.904;100.620;2022-12-07T15:01:24;19.15;;;8.68;;
23222;SDS011;11780;13.904;100.620;2022-12-07T15:03:54;9.80;;;7.55;;
23222;SDS011;11780;13.904;100.620;2022-12-07T15:06:24;10.97;;;8.60;;
23222;SDS011;11780;13.904;100.620;2022-12-07T15:08:55;14.77;;;8.60;;
23222;SDS011;11780;13.904;100.620;2022-12-07T15:11:25;11.88;;;7.63;;
23222;SDS011;11780;13.904;100.620;2022-12-07T15:13:55;11.25;;;8.05;;
23222;SDS011;11780;13.904;100.620;2022-12-07T15:16:38;9.00;;;7.63;;
23222;SDS011;11780;13.904;100.620;2022-12-07T15:19:30;10.77;;;7.65;;
23222;SDS011;11780;13.904;100.620;2022-12-07T15:22:01;10.93;;;7.57;;
23222;SDS011;11780;13.904;100.620;2022-12-07T15:24:31;14.70;;;8.18;;
23222;SDS011;11780;13.904;100.620;2022-12-07T15:27:21;11.15;;;8.60;;
23222;SDS011;11780;13.904;100.620;2022-12-07T15:30:10;11.45;;;7.95;;
23222;SDS011;11780;13.904;100.620;2022-12-07T15:32:40;16.77;;;8.23;;
23222;SDS011;11780;13.904;100.620;2022-12-07T15:35:10;14.30;;;8.47;;
23222;SDS011;11780;13.904;100.620;2022-12-07T15:37:59;15.30;;;8.52;;
23222;SDS011;11780;13.904;100.620;2022-12-07T15:40:29;10.47;;;6.80;;
23222;SDS011;11780;13.904;100.620;2022-12-07T15:43:01;14.55;;;8.20;;
23222;SDS011;11780;13.904;100.620;2022-12-07T15:45:31;12.30;;;7.20;;
23222;SDS011;11780;13.904;100.620;2022-12-07T15:48:02;14.25;;;8.30;;
23222;SDS011;11780;13.904;100.620;2022-12-07T15:50:52;11.45;;;7.95;;
23222;SDS011;11780;13.904;100.620;2022-12-07T15:53:22;14.40;;;8.48;;
23222;SDS011;11780;13.904;100.620;2022-12-07T15:56:11;11.90;;;7.38;;
23222;SDS011;11780;13.904;100.620;2022-12-07T15:58:41;11.93;;;7.38;;
23222;SDS011;11780;13.904;100.620;2022-12-07T16:01:16;19.70;;;9.57;;
23222;SDS011;11780;13.904;100.620;2022-12-07T16:03:47;12.02;;;7.00;;
23222;SDS011;11780;13.904;100.620;2022-12-07T16:06:18;10.67;;;7.30;;
23222;SDS011;11780;13.904;100.620;2022-12-07T16:08:48;10.23;;;7.55;;
23222;SDS011;11780;13.904;100.620;2022-12-07T16:11:20;12.23;;;7.53;;
23222;SDS011;11780;13.904;100.620;2022-12-07T16:16:20;11.93;;;7.78;;
23222;SDS011;11780;13.904;100.620;2022-12-07T16:18:51;12.60;;;7.88;;
23222;SDS011;11780;13.904;100.620;2022-12-07T16:21:22;17.40;;;8.10;;
23222;SDS011;11780;13.904;100.620;2022-12-07T16:23:52;18.67;;;9.02;;
23222;SDS011;11780;13.904;100.620;2022-12-07T16:26:22;11.80;;;7.35;;
23222;SDS011;11780;13.904;100.620;2022-12-07T16:28:53;12.30;;;7.75;;
23222;SDS011;11780;13.904;100.620;2022-12-07T16:31:27;14.50;;;8.93;;
23222;SDS011;11780;13.904;100.620;2022-12-07T16:33:58;12.32;;;8.15;;
23222;SDS011;11780;13.904;100.620;2022-12-07T16:36:28;18.35;;;8.75;;
23222;SDS011;11780;13.904;100.620;2022-12-07T16:39:19;15.85;;;8.23;;
23222;SDS011;11780;13.904;100.620;2022-12-07T16:41:49;10.75;;;8.30;;
23222;SDS011;11780;13.904;100.620;2022-12-07T16:44:20;12.23;;;8.20;;
23222;SDS011;11780;13.904;100.620;2022-12-07T16:46:50;11.20;;;8.27;;
23222;SDS011;11780;13.904;100.620;2022-12-07T16:49:20;12.13;;;8.30;;
23222;SDS011;11780;13.904;100.620;2022-12-07T16:51:50;12.77;;;7.45;;
23222;SDS011;11780;13.904;100.620;2022-12-07T16:54:40;13.15;;;7.32;;
23222;SDS011;11780;13.904;100.620;2022-12-07T16:57:11;13.82;;;8.75;;
23222;SDS011;11780;13.904;100.620;2022-12-07T16:59:48;10.02;;;7.50;;